createdAt,value
2022-07-26T00:00:01.223Z,1008.35
2022-07-26T00:01:00.997Z,1008.37
2022-07-26T00:02:00.953Z,1008.43
2022-07-26T00:03:00.804Z,1008.44
2022-07-26T00:04:00.646Z,1008.51
2022-07-26T00:05:00.690Z,1008.62
2022-07-26T00:06:01.936Z,1008.69
2022-07-26T00:07:01.165Z,1008.71
2022-07-26T00:08:00.667Z,1008.8
2022-07-26T00:09:00.738Z,1008.88
2022-07-26T00:10:00.677Z,1008.91
2022-07-26T00:11:07.381Z,1008.89
2022-07-26T00:12:02.253Z,1008.9
2022-07-26T00:13:02.145Z,1008.97
2022-07-26T00:14:01.014Z,1008.99
2022-07-26T00:15:00.679Z,1009
2022-07-26T00:16:05.597Z,1009.03
2022-07-26T00:17:01.110Z,1009.04
2022-07-26T00:18:00.874Z,1009.03
2022-07-26T00:19:00.995Z,1009.03
2022-07-26T00:20:00.639Z,1009.07
2022-07-26T00:21:08.817Z,1009.15
2022-07-26T00:22:02.308Z,1009.14
2022-07-26T00:23:02.199Z,1009.2
2022-07-26T00:24:02.329Z,1009.21
2022-07-26T00:25:01.102Z,1009.22
2022-07-26T00:26:08.983Z,1009.25
2022-07-26T00:27:01.098Z,1009.24
2022-07-26T00:28:04.898Z,1009.14
2022-07-26T00:29:01.236Z,1009.12
2022-07-26T00:30:00.915Z,1008.96
2022-07-26T00:31:10.658Z,1008.86
2022-07-26T00:32:03.261Z,1008.82
2022-07-26T00:33:01.525Z,1008.8
2022-07-26T00:34:00.599Z,1008.76
2022-07-26T00:35:00.274Z,1008.82
2022-07-26T00:36:13.590Z,1008.86
2022-07-26T00:37:00.789Z,1008.9
2022-07-26T00:38:00.523Z,1008.88
2022-07-26T00:39:00.258Z,1008.85
2022-07-26T00:40:00.006Z,1008.9
2022-07-26T00:41:14.035Z,1008.9
2022-07-26T00:42:01.089Z,1008.93
2022-07-26T00:43:00.684Z,1008.96
2022-07-26T00:44:00.419Z,1009.06
2022-07-26T00:45:00.081Z,1009.19
2022-07-26T00:45:59.859Z,1009.24
2022-07-26T00:46:59.586Z,1009.22
2022-07-26T00:48:01.275Z,1009.27
2022-07-26T00:49:01.110Z,1009.27
2022-07-26T00:50:00.784Z,1009.26
2022-07-26T00:51:00.573Z,1009.35
2022-07-26T00:52:00.219Z,1009.39
2022-07-26T00:52:59.968Z,1009.37
2022-07-26T00:53:59.781Z,1009.31
2022-07-26T00:55:02.266Z,1009.33
2022-07-26T00:56:02.708Z,1009.36
2022-07-26T00:57:01.104Z,1009.39
2022-07-26T00:58:00.904Z,1009.4
2022-07-26T00:59:00.732Z,1009.43
2022-07-26T01:00:00.872Z,1009.53
2022-07-26T01:01:00.680Z,1009.57
2022-07-26T01:02:00.560Z,1009.59
2022-07-26T01:03:00.288Z,1009.62
2022-07-26T01:04:00.131Z,1009.6
2022-07-26T01:04:59.812Z,1009.66
2022-07-26T01:06:02.622Z,1009.59
2022-07-26T01:07:02.091Z,1009.65
2022-07-26T01:08:01.367Z,1009.76
2022-07-26T01:09:00.866Z,1009.85
2022-07-26T01:10:00.556Z,1009.78
2022-07-26T01:11:00.301Z,1009.78
2022-07-26T01:12:00.069Z,1009.72
2022-07-26T01:12:59.872Z,1009.66
2022-07-26T01:13:59.701Z,1009.58
2022-07-26T01:15:02.477Z,1009.55
2022-07-26T01:16:02.594Z,1009.57
2022-07-26T01:17:01.218Z,1009.58
2022-07-26T01:18:01.032Z,1009.58
2022-07-26T01:19:00.849Z,1009.54
2022-07-26T01:20:00.570Z,1009.61
2022-07-26T01:21:00.381Z,1009.68
2022-07-26T01:22:00.428Z,1009.68
2022-07-26T01:23:00.325Z,1009.66
2022-07-26T01:24:00.169Z,1009.67
2022-07-26T01:24:59.848Z,1009.68
2022-07-26T01:26:01.586Z,1009.7
2022-07-26T01:27:00.674Z,1009.77
2022-07-26T01:28:01.493Z,1009.8
2022-07-26T01:29:01.105Z,1009.8
2022-07-26T01:30:00.744Z,1009.76
2022-07-26T01:31:00.747Z,1009.78
2022-07-26T01:32:01.547Z,1009.76
2022-07-26T01:33:01.379Z,1009.74
2022-07-26T01:34:01.550Z,1009.8
2022-07-26T01:35:01.036Z,1009.78
2022-07-26T01:36:00.930Z,1009.83
2022-07-26T01:37:00.700Z,1009.87
2022-07-26T01:38:00.472Z,1009.83
2022-07-26T01:39:00.160Z,1009.83
2022-07-26T01:39:59.849Z,1009.9
2022-07-26T01:41:02.324Z,1009.91
2022-07-26T01:42:00.881Z,1009.88
2022-07-26T01:43:00.518Z,1009.82
2022-07-26T01:44:00.298Z,1009.83
2022-07-26T01:44:59.998Z,1009.85
2022-07-26T01:46:00.365Z,1009.84
2022-07-26T01:47:00.430Z,1009.86
2022-07-26T01:48:00.216Z,1009.85
2022-07-26T01:48:59.949Z,1009.84
2022-07-26T01:50:00.405Z,1009.82
2022-07-26T01:51:00.103Z,1009.79
2022-07-26T01:51:59.867Z,1009.83
2022-07-26T01:52:59.853Z,1009.82
2022-07-26T01:54:02.235Z,1009.84
2022-07-26T01:55:02.395Z,1009.98
2022-07-26T01:56:00.967Z,1009.98
2022-07-26T01:57:00.645Z,1010.03
2022-07-26T01:58:00.539Z,1010.04
2022-07-26T01:59:00.162Z,1009.98
2022-07-26T01:59:59.875Z,1009.96
2022-07-26T02:00:59.627Z,1010.01
2022-07-26T02:02:02.109Z,1010.03
2022-07-26T02:03:02.462Z,1010.08
2022-07-26T02:04:01.309Z,1010.14
2022-07-26T02:05:01.413Z,1010.14
2022-07-26T02:06:01.347Z,1010.19
2022-07-26T02:07:05.298Z,1010.12
2022-07-26T02:08:01.174Z,1010.09
2022-07-26T02:09:02.926Z,1010.02
2022-07-26T02:10:00.670Z,1010.1
2022-07-26T02:11:00.465Z,1010.06
2022-07-26T02:12:01.370Z,1010.05
2022-07-26T02:13:01.883Z,1010.06
2022-07-26T02:14:01.616Z,1010.05
2022-07-26T02:15:01.022Z,1010.03
2022-07-26T02:16:00.827Z,1010.06
2022-07-26T02:17:00.761Z,1010.03
2022-07-26T02:18:00.599Z,1010
2022-07-26T02:19:01.136Z,1010.01
2022-07-26T02:20:01.147Z,1010.07
2022-07-26T02:21:00.830Z,1010.14
2022-07-26T02:22:01.468Z,1010.12
2022-07-26T02:23:02.881Z,1010.27
2022-07-26T02:24:02.692Z,1010.29
2022-07-26T02:25:05.010Z,1010.31
2022-07-26T02:26:00.821Z,1010.32
2022-07-26T02:27:03.063Z,1010.39
2022-07-26T02:28:02.229Z,1010.39
2022-07-26T02:29:00.778Z,1010.35
2022-07-26T02:30:00.492Z,1010.4
2022-07-26T02:31:00.266Z,1010.35
2022-07-26T02:32:07.624Z,1010.3
2022-07-26T02:33:01.035Z,1010.22
2022-07-26T02:34:01.479Z,1010.25
2022-07-26T02:35:00.723Z,1010.26
2022-07-26T02:36:00.450Z,1010.23
2022-07-26T02:37:10.722Z,1010.2
2022-07-26T02:38:02.169Z,1010.16
2022-07-26T02:39:01.351Z,1010.16
2022-07-26T02:40:00.858Z,1010.19
2022-07-26T02:41:00.596Z,1010.22
2022-07-26T02:42:11.511Z,1010.18
2022-07-26T02:43:02.658Z,1010.18
2022-07-26T02:44:02.079Z,1010.21
2022-07-26T02:45:02.048Z,1010.15
2022-07-26T02:46:02.091Z,1010.13
2022-07-26T02:47:12.853Z,1010.02
2022-07-26T02:48:01.331Z,1009.95
2022-07-26T02:49:00.744Z,1009.9
2022-07-26T02:50:00.615Z,1009.91
2022-07-26T02:51:00.327Z,1009.9
2022-07-26T02:52:15.015Z,1009.87
2022-07-26T02:53:01.493Z,1009.82
2022-07-26T02:54:02.828Z,1009.88
2022-07-26T02:55:01.490Z,1009.88
2022-07-26T02:56:02.532Z,1009.9
2022-07-26T02:57:01.155Z,1009.93
2022-07-26T02:58:00.808Z,1009.93
2022-07-26T02:59:00.722Z,1009.96
2022-07-26T03:00:00.409Z,1009.95
2022-07-26T03:01:00.078Z,1009.95
2022-07-26T03:01:59.771Z,1009.95
2022-07-26T03:03:02.568Z,1009.97
2022-07-26T03:04:02.277Z,1009.93
2022-07-26T03:05:02.650Z,1009.98
2022-07-26T03:06:02.830Z,1010.03
2022-07-26T03:07:02.426Z,1010.08
2022-07-26T03:08:02.775Z,1010.12
2022-07-26T03:09:02.164Z,1010.11
2022-07-26T03:10:02.692Z,1010.08
2022-07-26T03:11:00.964Z,1010.08
2022-07-26T03:12:00.652Z,1010.13
2022-07-26T03:13:00.376Z,1010.08
2022-07-26T03:14:02.003Z,1010.12
2022-07-26T03:15:02.417Z,1010.11
2022-07-26T03:16:01.173Z,1010.15
2022-07-26T03:17:00.941Z,1010.19
2022-07-26T03:18:00.623Z,1010.25
2022-07-26T03:19:00.315Z,1010.24
2022-07-26T03:20:00.108Z,1010.23
2022-07-26T03:20:59.889Z,1010.2
2022-07-26T03:21:59.592Z,1010.23
2022-07-26T03:23:00.130Z,1010.26
2022-07-26T03:23:59.986Z,1010.25
2022-07-26T03:24:59.779Z,1010.22
2022-07-26T03:26:02.574Z,1010.26
2022-07-26T03:27:00.854Z,1010.29
2022-07-26T03:28:00.456Z,1010.32
2022-07-26T03:29:00.271Z,1010.33
2022-07-26T03:29:59.963Z,1010.32
2022-07-26T03:30:59.833Z,1010.32
2022-07-26T03:32:02.055Z,1010.35
2022-07-26T03:33:00.592Z,1010.37
2022-07-26T03:34:03.297Z,1010.43
2022-07-26T03:35:02.195Z,1010.41
2022-07-26T03:36:01.307Z,1010.45
2022-07-26T03:37:00.696Z,1010.45
2022-07-26T03:38:00.349Z,1010.44
2022-07-26T03:39:00.324Z,1010.45
2022-07-26T03:40:00.025Z,1010.46
2022-07-26T03:40:59.742Z,1010.47
2022-07-26T03:42:03.018Z,1010.48
2022-07-26T03:43:01.495Z,1010.52
2022-07-26T03:44:00.838Z,1010.49
2022-07-26T03:45:00.785Z,1010.5
2022-07-26T03:46:00.534Z,1010.48
2022-07-26T03:47:00.475Z,1010.52
2022-07-26T03:48:00.159Z,1010.53
2022-07-26T03:49:00.528Z,1010.59
2022-07-26T03:50:00.243Z,1010.58
2022-07-26T03:50:59.994Z,1010.58
2022-07-26T03:51:59.800Z,1010.61
2022-07-26T03:53:02.651Z,1010.58
2022-07-26T03:54:00.898Z,1010.64
2022-07-26T03:55:00.741Z,1010.57
2022-07-26T03:56:01.084Z,1010.62
2022-07-26T03:57:00.845Z,1010.64
2022-07-26T03:58:00.550Z,1010.67
2022-07-26T03:59:00.241Z,1010.7
2022-07-26T03:59:59.949Z,1010.68
2022-07-26T04:01:00.899Z,1010.69
2022-07-26T04:02:00.944Z,1010.69
2022-07-26T04:03:00.757Z,1010.7
2022-07-26T04:04:00.551Z,1010.67
2022-07-26T04:05:00.877Z,1010.67
2022-07-26T04:06:00.633Z,1010.7
2022-07-26T04:07:03.163Z,1010.7
2022-07-26T04:08:01.073Z,1010.7
2022-07-26T04:09:02.247Z,1010.68
2022-07-26T04:10:00.937Z,1010.69
2022-07-26T04:11:00.639Z,1010.71
2022-07-26T04:12:00.369Z,1010.75
2022-07-26T04:13:00.857Z,1010.76
2022-07-26T04:14:00.494Z,1010.74
2022-07-26T04:15:00.710Z,1010.73
2022-07-26T04:16:00.400Z,1010.74
2022-07-26T04:17:00.500Z,1010.75
2022-07-26T04:18:01.243Z,1010.79
2022-07-26T04:19:01.029Z,1010.74
2022-07-26T04:20:00.813Z,1010.76
2022-07-26T04:21:00.595Z,1010.77
2022-07-26T04:22:00.399Z,1010.76
2022-07-26T04:23:02.923Z,1010.74
2022-07-26T04:24:01.272Z,1010.75
2022-07-26T04:25:00.636Z,1010.78
2022-07-26T04:26:00.390Z,1010.75
2022-07-26T04:27:00.128Z,1010.76
2022-07-26T04:28:05.750Z,1010.77
2022-07-26T04:29:00.801Z,1010.76
2022-07-26T04:30:00.572Z,1010.79
2022-07-26T04:31:00.545Z,1010.78
2022-07-26T04:32:00.280Z,1010.83
2022-07-26T04:33:07.733Z,1010.8
2022-07-26T04:34:01.210Z,1010.85
2022-07-26T04:35:01.753Z,1010.82
2022-07-26T04:36:00.899Z,1010.85
2022-07-26T04:37:00.679Z,1010.87
2022-07-26T04:38:11.781Z,1010.92
2022-07-26T04:39:02.375Z,1010.84
2022-07-26T04:40:02.490Z,1010.83
2022-07-26T04:41:01.139Z,1010.79
2022-07-26T04:42:00.921Z,1010.8
2022-07-26T04:43:16.296Z,1010.8
2022-07-26T04:44:00.738Z,1010.76
2022-07-26T04:45:05.852Z,1010.73
2022-07-26T04:46:00.763Z,1010.81
2022-07-26T04:47:00.798Z,1010.77
2022-07-26T04:48:00.826Z,1010.76
2022-07-26T04:49:00.747Z,1010.77
2022-07-26T04:50:00.998Z,1010.76
2022-07-26T04:51:00.685Z,1010.74
2022-07-26T04:52:00.335Z,1010.81
2022-07-26T04:52:59.987Z,1010.8
2022-07-26T04:53:59.638Z,1010.77
2022-07-26T04:55:02.925Z,1010.77
2022-07-26T04:56:01.594Z,1010.82
2022-07-26T04:57:00.646Z,1010.83
2022-07-26T04:58:00.541Z,1010.81
2022-07-26T04:59:00.882Z,1010.85
2022-07-26T05:00:20.389Z,1010.93
2022-07-26T05:01:09.897Z,1010.91
2022-07-26T05:02:01.238Z,1010.89
2022-07-26T05:03:01.176Z,1010.92
2022-07-26T05:04:00.949Z,1010.91
2022-07-26T05:05:01.250Z,1010.88
2022-07-26T05:06:00.902Z,1010.93
2022-07-26T05:07:00.573Z,1010.9
2022-07-26T05:08:00.310Z,1010.91
2022-07-26T05:08:59.961Z,1010.89
2022-07-26T05:09:59.690Z,1010.91
2022-07-26T05:11:01.453Z,1010.94
2022-07-26T05:12:00.853Z,1010.96
2022-07-26T05:13:00.530Z,1010.96
2022-07-26T05:14:00.176Z,1010.96
2022-07-26T05:14:59.953Z,1010.95
2022-07-26T05:16:01.925Z,1010.91
2022-07-26T05:17:08.967Z,1010.95
2022-07-26T05:18:00.668Z,1010.94
2022-07-26T05:19:01.389Z,1010.95
2022-07-26T05:20:03.159Z,1010.96
2022-07-26T05:21:01.223Z,1010.97
2022-07-26T05:22:00.990Z,1011.02
2022-07-26T05:23:00.646Z,1010.99
2022-07-26T05:24:00.299Z,1011.01
2022-07-26T05:25:00.007Z,1011
2022-07-26T05:25:59.708Z,1011.05
2022-07-26T05:27:02.347Z,1011.02
2022-07-26T05:28:02.398Z,1011.03
2022-07-26T05:29:01.250Z,1011.05
2022-07-26T05:30:00.937Z,1011.03
2022-07-26T05:31:00.876Z,1011.01
2022-07-26T05:32:02.189Z,1011
2022-07-26T05:33:00.672Z,1010.97
2022-07-26T05:34:00.291Z,1010.96
2022-07-26T05:35:00.756Z,1010.96
2022-07-26T05:36:01.591Z,1010.99
2022-07-26T05:37:02.615Z,1011.06
2022-07-26T05:38:02.526Z,1011.1
2022-07-26T05:39:02.176Z,1011.09
2022-07-26T05:40:01.224Z,1011.08
2022-07-26T05:41:00.936Z,1011.1
2022-07-26T05:42:00.622Z,1011.04
2022-07-26T05:43:00.279Z,1011.01
2022-07-26T05:44:00.524Z,1010.98
2022-07-26T05:45:00.272Z,1011.02
2022-07-26T05:46:00.787Z,1011.04
2022-07-26T05:47:01.232Z,1011.12
2022-07-26T05:48:01.013Z,1011.08
2022-07-26T05:49:01.252Z,1011.01
2022-07-26T05:50:00.978Z,1011.04
2022-07-26T05:51:00.669Z,1011.01
2022-07-26T05:52:01.469Z,1011.01
2022-07-26T05:53:01.546Z,1011.05
2022-07-26T05:54:01.226Z,1011.03
2022-07-26T05:55:00.913Z,1011.1
2022-07-26T05:56:00.651Z,1011.1
2022-07-26T05:57:00.324Z,1011.14
2022-07-26T05:58:00.016Z,1011.1
2022-07-26T05:58:59.654Z,1011.11
2022-07-26T06:00:01.315Z,1011.16
2022-07-26T06:01:01.115Z,1011.19
2022-07-26T06:02:01.455Z,1011.22
2022-07-26T06:03:00.967Z,1011.22
2022-07-26T06:04:00.781Z,1011.19
2022-07-26T06:05:00.567Z,1011.2
2022-07-26T06:06:00.705Z,1011.2
2022-07-26T06:07:00.403Z,1011.21
2022-07-26T06:08:00.086Z,1011.26
2022-07-26T06:09:01.213Z,1011.29
2022-07-26T06:10:00.915Z,1011.23
2022-07-26T06:11:00.624Z,1011.3
2022-07-26T06:12:00.440Z,1011.33
2022-07-26T06:13:00.253Z,1011.33
2022-07-26T06:14:01.802Z,1011.34
2022-07-26T06:15:00.955Z,1011.28
2022-07-26T06:16:01.033Z,1011.28
2022-07-26T06:17:00.921Z,1011.3
2022-07-26T06:18:00.775Z,1011.3
2022-07-26T06:19:03.077Z,1011.36
2022-07-26T06:20:02.272Z,1011.38
2022-07-26T06:21:02.337Z,1011.34
2022-07-26T06:22:01.546Z,1011.4
2022-07-26T06:23:03.128Z,1011.37
2022-07-26T06:24:06.151Z,1011.37
2022-07-26T06:25:00.804Z,1011.38
2022-07-26T06:26:00.462Z,1011.33
2022-07-26T06:27:04.879Z,1011.39
2022-07-26T06:28:01.235Z,1011.39
2022-07-26T06:29:06.478Z,1011.42
2022-07-26T06:30:01.250Z,1011.39
2022-07-26T06:31:01.054Z,1011.42
2022-07-26T06:32:00.858Z,1011.45
2022-07-26T06:33:00.662Z,1011.46
2022-07-26T06:34:09.892Z,1011.43
2022-07-26T06:35:01.500Z,1011.46
2022-07-26T06:36:01.024Z,1011.44
2022-07-26T06:37:00.685Z,1011.41
2022-07-26T06:38:01.406Z,1011.45
2022-07-26T06:39:12.995Z,1011.42
2022-07-26T06:40:01.124Z,1011.45
2022-07-26T06:41:00.874Z,1011.43
2022-07-26T06:42:00.535Z,1011.44
2022-07-26T06:43:04.400Z,1011.47
2022-07-26T06:44:16.719Z,1011.45
2022-07-26T06:45:03.089Z,1011.45
2022-07-26T06:46:00.841Z,1011.5
2022-07-26T06:47:00.602Z,1011.48
2022-07-26T06:48:00.793Z,1011.54
2022-07-26T06:49:00.499Z,1011.5
2022-07-26T06:50:00.290Z,1011.5
2022-07-26T06:51:00.066Z,1011.48
2022-07-26T06:51:59.982Z,1011.53
2022-07-26T06:52:59.666Z,1011.55
2022-07-26T06:54:02.238Z,1011.53
2022-07-26T06:55:02.160Z,1011.55
2022-07-26T06:56:01.091Z,1011.56
2022-07-26T06:57:01.555Z,1011.57
2022-07-26T06:58:01.125Z,1011.57
2022-07-26T06:59:01.730Z,1011.62
2022-07-26T07:00:00.901Z,1011.58
2022-07-26T07:01:00.797Z,1011.55
2022-07-26T07:02:00.890Z,1011.57
2022-07-26T07:03:00.628Z,1011.54
2022-07-26T07:04:00.355Z,1011.56
2022-07-26T07:05:00.224Z,1011.55
2022-07-26T07:06:00.079Z,1011.61
2022-07-26T07:06:59.875Z,1011.59
2022-07-26T07:08:00.782Z,1011.59
2022-07-26T07:09:01.306Z,1011.63
2022-07-26T07:10:01.236Z,1011.67
2022-07-26T07:11:01.357Z,1011.63
2022-07-26T07:12:05.556Z,1011.59
2022-07-26T07:13:00.630Z,1011.65
2022-07-26T07:14:00.294Z,1011.55
2022-07-26T07:15:00.151Z,1011.54
2022-07-26T07:16:00.368Z,1011.52
2022-07-26T07:17:00.255Z,1011.53
2022-07-26T07:18:00.065Z,1011.52
2022-07-26T07:18:59.726Z,1011.49
2022-07-26T07:20:02.425Z,1011.55
2022-07-26T07:21:02.345Z,1011.49
2022-07-26T07:22:00.664Z,1011.51
2022-07-26T07:23:01.682Z,1011.53
2022-07-26T07:24:02.072Z,1011.57
2022-07-26T07:25:02.882Z,1011.52
2022-07-26T07:26:00.613Z,1011.55
2022-07-26T07:27:00.611Z,1011.53
2022-07-26T07:28:00.284Z,1011.59
2022-07-26T07:28:59.996Z,1011.59
2022-07-26T07:30:01.259Z,1011.57
2022-07-26T07:31:00.991Z,1011.59
2022-07-26T07:32:03.450Z,1011.53
2022-07-26T07:33:00.959Z,1011.53
2022-07-26T07:34:01.185Z,1011.51
2022-07-26T07:35:01.200Z,1011.5
2022-07-26T07:36:00.725Z,1011.53
2022-07-26T07:37:00.367Z,1011.54
2022-07-26T07:38:00.599Z,1011.57
2022-07-26T07:39:05.941Z,1011.55
2022-07-26T07:40:01.303Z,1011.55
2022-07-26T07:41:01.029Z,1011.55
2022-07-26T07:42:00.805Z,1011.57
2022-07-26T07:43:00.486Z,1011.57
2022-07-26T07:44:00.231Z,1011.57
2022-07-26T07:45:00.027Z,1011.6
2022-07-26T07:45:59.746Z,1011.55
2022-07-26T07:47:02.290Z,1011.53
2022-07-26T07:48:01.479Z,1011.55
2022-07-26T07:49:01.129Z,1011.61
2022-07-26T07:50:00.881Z,1011.6
2022-07-26T07:51:00.575Z,1011.62
2022-07-26T07:52:00.866Z,1011.61
2022-07-26T07:53:00.569Z,1011.58
2022-07-26T07:54:05.150Z,1011.58
2022-07-26T07:55:36.753Z,1011.57
2022-07-26T07:56:02.462Z,1011.6
2022-07-26T07:57:01.521Z,1011.58
2022-07-26T07:58:01.002Z,1011.62
2022-07-26T07:59:00.711Z,1011.57
2022-07-26T08:00:00.669Z,1011.62
2022-07-26T08:01:00.970Z,1011.61
2022-07-26T08:02:00.733Z,1011.61
2022-07-26T08:03:00.438Z,1011.58
2022-07-26T08:04:00.190Z,1011.62
2022-07-26T08:05:04.803Z,1011.63
2022-07-26T08:06:01.144Z,1011.62
2022-07-26T08:07:00.867Z,1011.64
2022-07-26T08:08:00.542Z,1011.67
2022-07-26T08:09:00.236Z,1011.7
2022-07-26T08:09:59.908Z,1011.71
2022-07-26T08:10:59.729Z,1011.65
2022-07-26T08:12:01.495Z,1011.7
2022-07-26T08:13:01.417Z,1011.72
2022-07-26T08:14:00.737Z,1011.73
2022-07-26T08:15:00.435Z,1011.71
2022-07-26T08:16:00.892Z,1011.73
2022-07-26T08:17:00.881Z,1011.72
2022-07-26T08:18:00.634Z,1011.72
2022-07-26T08:19:00.750Z,1011.72
2022-07-26T08:20:00.959Z,1011.76
2022-07-26T08:21:02.421Z,1011.76
2022-07-26T08:22:02.580Z,1011.76
2022-07-26T08:23:01.287Z,1011.75
2022-07-26T08:24:00.979Z,1011.72
2022-07-26T08:25:00.734Z,1011.72
2022-07-26T08:26:04.693Z,1011.75
2022-07-26T08:27:01.111Z,1011.76
2022-07-26T08:28:03.492Z,1011.75
2022-07-26T08:29:00.815Z,1011.71
2022-07-26T08:30:00.723Z,1011.67
2022-07-26T08:31:00.621Z,1011.66
2022-07-26T08:32:00.415Z,1011.65
2022-07-26T08:33:00.233Z,1011.62
2022-07-26T08:33:59.917Z,1011.61
2022-07-26T08:35:17.850Z,1011.6
2022-07-26T08:36:00.669Z,1011.59
2022-07-26T08:37:16.656Z,1011.57
2022-07-26T08:38:00.663Z,1011.62
2022-07-26T08:39:00.370Z,1011.68
2022-07-26T08:40:03.086Z,1011.72
2022-07-26T08:41:01.077Z,1011.73
2022-07-26T08:42:00.893Z,1011.78
2022-07-26T08:43:00.841Z,1011.77
2022-07-26T08:44:00.746Z,1011.75
2022-07-26T08:45:08.289Z,1011.75
2022-07-26T08:46:01.370Z,1011.77
2022-07-26T08:47:00.952Z,1011.81
2022-07-26T08:48:17.440Z,1011.81
2022-07-26T08:49:00.677Z,1011.86
2022-07-26T08:50:09.843Z,1011.84
2022-07-26T08:51:01.478Z,1011.87
2022-07-26T08:52:01.086Z,1011.83
2022-07-26T08:53:00.881Z,1011.83
2022-07-26T08:54:07.862Z,1011.81
2022-07-26T08:55:11.400Z,1011.82
2022-07-26T08:56:07.963Z,1011.83
2022-07-26T08:57:01.066Z,1011.83
2022-07-26T08:58:00.959Z,1011.87
2022-07-26T08:59:00.634Z,1011.92
2022-07-26T09:00:13.741Z,1011.88
2022-07-26T09:01:01.518Z,1011.9
2022-07-26T09:02:01.144Z,1011.89
2022-07-26T09:03:00.634Z,1011.87
2022-07-26T09:04:00.397Z,1011.91
2022-07-26T09:05:13.878Z,1011.92
2022-07-26T09:06:00.762Z,1011.92
2022-07-26T09:07:00.570Z,1011.89
2022-07-26T09:08:00.213Z,1011.92
2022-07-26T09:08:59.960Z,1011.92
2022-07-26T09:10:14.397Z,1011.92
2022-07-26T09:11:00.784Z,1011.9
2022-07-26T09:12:00.492Z,1011.87
2022-07-26T09:13:00.212Z,1011.91
2022-07-26T09:13:59.908Z,1011.89
2022-07-26T09:14:59.595Z,1011.89
2022-07-26T09:16:02.303Z,1011.89
2022-07-26T09:17:02.097Z,1011.93
2022-07-26T09:18:01.555Z,1011.94
2022-07-26T09:19:00.835Z,1011.91
2022-07-26T09:20:00.531Z,1011.94
2022-07-26T09:21:00.243Z,1011.9
2022-07-26T09:21:59.916Z,1011.87
2022-07-26T09:22:59.545Z,1011.89
2022-07-26T09:24:01.188Z,1011.86
2022-07-26T09:25:00.847Z,1011.86
2022-07-26T09:26:00.646Z,1011.83
2022-07-26T09:27:00.647Z,1011.84
2022-07-26T09:28:00.328Z,1011.86
2022-07-26T09:28:59.981Z,1011.86
2022-07-26T09:29:59.719Z,1011.86
2022-07-26T09:31:02.209Z,1011.83
2022-07-26T09:32:01.132Z,1011.81
2022-07-26T09:33:00.865Z,1011.81
2022-07-26T09:34:01.246Z,1011.79
2022-07-26T09:35:00.534Z,1011.83
2022-07-26T09:36:00.234Z,1011.85
2022-07-26T09:36:59.903Z,1011.8
2022-07-26T09:37:59.635Z,1011.81
2022-07-26T09:39:02.207Z,1011.8
2022-07-26T09:40:01.392Z,1011.85
2022-07-26T09:41:00.978Z,1011.8
2022-07-26T09:42:26.108Z,1011.76
2022-07-26T09:43:00.699Z,1011.8
2022-07-26T09:44:00.390Z,1011.79
2022-07-26T09:45:00.245Z,1011.81
2022-07-26T09:45:59.994Z,1011.74
2022-07-26T09:47:01.186Z,1011.73
2022-07-26T09:48:00.928Z,1011.76
2022-07-26T09:49:11.053Z,1011.76
2022-07-26T09:50:01.069Z,1011.78
2022-07-26T09:51:00.834Z,1011.79
2022-07-26T09:52:00.569Z,1011.81
2022-07-26T09:53:00.255Z,1011.78
2022-07-26T09:53:59.937Z,1011.82
2022-07-26T09:54:59.636Z,1011.77
2022-07-26T09:56:02.223Z,1011.81
2022-07-26T09:57:02.250Z,1011.77
2022-07-26T09:58:01.944Z,1011.76
2022-07-26T09:59:01.919Z,1011.82
2022-07-26T10:00:00.604Z,1011.83
2022-07-26T10:01:02.496Z,1011.87
2022-07-26T10:02:01.448Z,1011.91
2022-07-26T10:03:01.182Z,1011.9
2022-07-26T10:04:01.860Z,1011.9
2022-07-26T10:05:00.840Z,1011.88
2022-07-26T10:06:00.491Z,1011.89
2022-07-26T10:07:00.149Z,1011.89
2022-07-26T10:07:59.929Z,1011.87
2022-07-26T10:08:59.626Z,1011.86
2022-07-26T10:10:01.336Z,1011.83
2022-07-26T10:11:01.050Z,1011.82
2022-07-26T10:12:00.826Z,1011.83
2022-07-26T10:13:01.049Z,1011.83
2022-07-26T10:14:00.819Z,1011.79
2022-07-26T10:15:00.489Z,1011.8
2022-07-26T10:16:00.452Z,1011.82
2022-07-26T10:17:00.820Z,1011.86
2022-07-26T10:18:01.126Z,1011.89
2022-07-26T10:19:02.035Z,1011.92
2022-07-26T10:20:00.823Z,1011.94
2022-07-26T10:21:00.738Z,1011.99
2022-07-26T10:22:00.445Z,1012.01
2022-07-26T10:23:00.141Z,1012.02
2022-07-26T10:23:59.787Z,1012.09
2022-07-26T10:25:02.508Z,1012.11
2022-07-26T10:26:00.785Z,1012.12
2022-07-26T10:27:00.845Z,1012.08
2022-07-26T10:28:00.500Z,1012.08
2022-07-26T10:29:00.215Z,1012.11
2022-07-26T10:29:59.875Z,1012.1
2022-07-26T10:30:59.736Z,1012.07
2022-07-26T10:32:01.747Z,1012.13
2022-07-26T10:33:01.326Z,1012.11
2022-07-26T10:34:01.037Z,1012.13
2022-07-26T10:35:00.722Z,1012.06
2022-07-26T10:36:00.365Z,1012.08
2022-07-26T10:37:00.031Z,1012.12
2022-07-26T10:37:59.826Z,1012.1
2022-07-26T10:39:02.099Z,1012.1
2022-07-26T10:40:02.409Z,1012.09
2022-07-26T10:41:00.934Z,1012.07
2022-07-26T10:42:00.990Z,1012.05
2022-07-26T10:43:12.141Z,1012.03
2022-07-26T10:44:00.686Z,1012.06
2022-07-26T10:45:00.391Z,1012.05
2022-07-26T10:46:01.824Z,1012.06
2022-07-26T10:47:01.223Z,1012.04
2022-07-26T10:48:00.970Z,1012.02
2022-07-26T10:49:00.761Z,1012.07
2022-07-26T10:50:00.514Z,1012.02
2022-07-26T10:51:06.390Z,1012.03
2022-07-26T10:52:01.086Z,1012.02
2022-07-26T10:53:00.749Z,1011.99
2022-07-26T10:54:00.476Z,1011.99
2022-07-26T10:55:00.401Z,1011.93
2022-07-26T10:56:07.248Z,1011.96
2022-07-26T10:57:01.712Z,1011.95
2022-07-26T10:58:01.292Z,1012.02
2022-07-26T10:59:00.997Z,1011.91
2022-07-26T11:00:00.788Z,1011.94
2022-07-26T11:01:11.918Z,1011.96
2022-07-26T11:02:01.060Z,1011.94
2022-07-26T11:03:00.839Z,1011.83
2022-07-26T11:04:00.786Z,1011.88
2022-07-26T11:05:00.476Z,1011.93
2022-07-26T11:06:14.142Z,1011.87
2022-07-26T11:07:01.005Z,1011.83
2022-07-26T11:08:01.050Z,1011.83
2022-07-26T11:09:01.846Z,1011.8
2022-07-26T11:10:00.983Z,1011.83
2022-07-26T11:11:00.760Z,1011.85
2022-07-26T11:12:00.464Z,1011.86
2022-07-26T11:13:00.421Z,1011.89
2022-07-26T11:14:00.456Z,1011.89
2022-07-26T11:15:00.443Z,1011.89
2022-07-26T11:16:02.625Z,1011.87
2022-07-26T11:17:01.012Z,1011.85
2022-07-26T11:18:00.803Z,1011.85
2022-07-26T11:19:00.763Z,1011.85
2022-07-26T11:20:00.724Z,1011.84
2022-07-26T11:21:00.439Z,1011.83
2022-07-26T11:22:00.194Z,1011.81
2022-07-26T11:23:00.506Z,1011.84
2022-07-26T11:24:00.252Z,1011.82
2022-07-26T11:25:00.181Z,1011.85
2022-07-26T11:26:02.300Z,1011.78
2022-07-26T11:27:01.063Z,1011.75
2022-07-26T11:28:00.827Z,1011.78
2022-07-26T11:29:00.922Z,1011.76
2022-07-26T11:30:01.229Z,1011.74
2022-07-26T11:31:01.037Z,1011.77
2022-07-26T11:32:06.832Z,1011.73
2022-07-26T11:33:00.796Z,1011.7
2022-07-26T11:34:00.419Z,1011.69
2022-07-26T11:35:00.140Z,1011.67
2022-07-26T11:35:59.904Z,1011.66
2022-07-26T11:36:59.735Z,1011.67
2022-07-26T11:38:11.316Z,1011.67
2022-07-26T11:39:02.548Z,1011.65
2022-07-26T11:40:00.745Z,1011.67
2022-07-26T11:41:00.563Z,1011.67
2022-07-26T11:42:00.222Z,1011.65
2022-07-26T11:42:59.913Z,1011.64
2022-07-26T11:44:02.388Z,1011.6
2022-07-26T11:45:02.004Z,1011.6
2022-07-26T11:46:00.975Z,1011.63
2022-07-26T11:47:01.804Z,1011.58
2022-07-26T11:48:00.693Z,1011.61
2022-07-26T11:49:00.463Z,1011.58
2022-07-26T11:51:02.183Z,1011.59
2022-07-26T11:52:00.930Z,1011.57
2022-07-26T11:53:00.985Z,1011.61
2022-07-26T11:54:00.635Z,1011.61
2022-07-26T11:55:00.290Z,1011.63
2022-07-26T11:56:00.029Z,1011.63
2022-07-26T11:56:59.743Z,1011.62
2022-07-26T11:58:02.604Z,1011.6
2022-07-26T11:59:01.580Z,1011.65
2022-07-26T12:00:02.257Z,1011.61
2022-07-26T12:01:01.540Z,1011.64
2022-07-26T12:02:00.865Z,1011.64
2022-07-26T12:03:00.668Z,1011.6
2022-07-26T12:04:00.993Z,1011.64
2022-07-26T12:05:00.885Z,1011.6
2022-07-26T12:06:00.820Z,1011.62
2022-07-26T12:07:00.519Z,1011.66
2022-07-26T12:08:00.199Z,1011.61
2022-07-26T12:08:59.933Z,1011.61